Terminal Aerodrome Forecast
Issued by NWS Miami, FL

Home | Current Version | Previous Version | Text Only | Print | Product List | Glossary On
Versions: 1 2 3 4 5 6 7 8 9 10 11 12 13 14 15 16 17 18 19 20 21 22 23 24 25 26 27 28
000
FTUS42 KMFL 231126
TAFPBI
TAF
KPBI 231126Z 2312/2412 09005KT P6SM VCSH FEW015 SCT025 BKN250
      TEMPO 2312/2313 3SM TSRA FEW010 SCT015 BKN025CB
     FM231300 05010KT P6SM VCTS SCT025CB BKN050
     FM240000 03005KT P6SM FEW015 SCT025 BKN250=

USA.gov is the U.S. government's official web portal to all federal, state and local government web resources and services.